Time;durP1;ratioP1;P1;durP2;ratioP2;P2;SDS_P1;SDS_P2;PMS_P1;PMS_P2;Temp;Humidity;BMP_temperature;BMP_pressure;BME280_temperature;BME280_humidity;BME280_pressure;Samples;Min_cycle;Max_cycle;Signal;HPM_P1;HPM_P2
2021/05/03 00:03:06;;;;;;;17.92;7.47;;;;;;;16.25;63.21;99127.09;1811182;77;22472;-80
2021/05/03 00:05:34;;;;;;;18.27;8.53;;;;;;;16.16;62.69;99128.98;1739708;81;21139;-74
2021/05/03 00:08:03;;;;;;;12.00;5.22;;;;;;;16.12;63.00;99126.57;1733414;80;21148;-81
2021/05/03 00:10:30;;;;;;;12.70;4.12;;;;;;;16.08;63.11;99122.81;1754248;81;21153;-73
2021/05/03 00:12:58;;;;;;;10.25;5.08;;;;;;;16.05;62.88;99117.91;1679678;81;21308;-73
2021/05/03 00:15:26;;;;;;;17.23;6.17;;;;;;;16.02;62.40;99122.67;1708437;83;21147;-84
2021/05/03 00:17:54;;;;;;;13.58;5.37;;;;;;;16.00;63.05;99120.23;1680021;85;21180;-73
2021/05/03 00:20:22;;;;;;;;;;;;;;;15.99;63.33;99116.42;1667160;84;21626;-81
2021/05/03 00:22:50;;;;;;;11.90;5.28;;;;;;;15.97;63.15;99113.12;1690806;85;20253;-74
2021/05/03 00:25:19;;;;;;;11.63;5.00;;;;;;;15.95;63.20;99107.11;1713058;82;21581;-80
2021/05/03 00:27:47;;;;;;;9.70;4.47;;;;;;;15.92;63.07;99099.45;1699361;83;21150;-82
2021/05/03 00:30:16;;;;;;;12.30;5.97;;;;;;;15.87;63.21;99097.07;1708318;82;21141;-73
2021/05/03 00:32:45;;;;;;;13.00;4.95;;;;;;;15.84;63.13;99100.45;1709662;84;21215;-72
2021/05/03 00:35:13;;;;;;;34.78;16.17;;;;;;;15.80;63.29;99091.73;1712691;82;21168;-72
2021/05/03 00:37:41;;;;;;;13.53;5.37;;;;;;;15.76;63.20;99100.38;1718948;83;21193;-73
2021/05/03 00:40:10;;;;;;;13.08;5.62;;;;;;;15.73;63.26;99107.89;1709352;83;21615;-73
2021/05/03 00:42:38;;;;;;;15.00;6.17;;;;;;;15.68;63.02;99095.59;1685944;83;21218;-76
2021/05/03 00:45:10;;;;;;;18.30;8.20;;;;;;;15.63;62.94;99102.05;1690090;83;21189;-73
2021/05/03 00:47:39;;;;;;;12.53;4.42;;;;;;;15.58;62.88;99104.09;1704906;83;21216;-75
2021/05/03 00:50:13;;;;;;;12.07;5.03;;;;;;;15.55;63.14;99105.53;1701469;83;21231;-75
2021/05/03 00:52:42;;;;;;;12.88;4.30;;;;;;;15.49;63.19;99099.86;1685887;85;21603;-79
2021/05/03 00:55:12;;;;;;;9.28;4.20;;;;;;;15.45;63.14;99102.13;1698792;83;21658;-80
2021/05/03 00:57:40;;;;;;;7.95;4.20;;;;;;;15.41;63.63;99095.03;1719294;83;21168;-74
2021/05/03 01:00:11;;;;;;;22.13;11.03;;;;;;;15.38;63.48;99100.36;1719503;83;21136;-74
2021/05/03 01:02:39;;;;;;;24.25;11.18;;;;;;;15.36;63.93;99103.97;1705064;82;21715;-80
2021/05/03 01:05:09;;;;;;;15.68;6.45;;;;;;;15.32;63.55;99091.38;1706190;84;21721;-73
2021/05/03 01:07:38;;;;;;;15.53;7.00;;;;;;;15.30;62.27;99086.73;1693990;82;21190;-73
2021/05/03 01:10:07;;;;;;;;;;;;;;;15.28;62.03;99075.17;1721197;83;21200;-78
2021/05/03 01:12:37;;;;;;;11.35;4.78;;;;;;;15.26;61.54;99081.56;1685802;83;20222;-78
2021/05/03 01:15:07;;;;;;;26.75;12.07;;;;;;;15.22;62.01;99075.05;1687839;85;21279;-76
2021/05/03 01:17:37;;;;;;;13.00;4.20;;;;;;;15.18;62.04;99071.25;1682757;83;21182;-73
2021/05/03 01:20:11;;;;;;;17.07;6.85;;;;;;;15.13;61.92;99068.05;1682219;85;21281;-79
2021/05/03 01:22:39;;;;;;;11.97;4.83;;;;;;;15.11;62.22;99062.59;1660385;84;21152;-74
2021/05/03 01:25:09;;;;;;;12.90;4.55;;;;;;;15.06;61.40;99062.69;1701609;83;21679;-77
2021/05/03 01:27:37;;;;;;;10.58;4.30;;;;;;;15.02;61.13;99061.13;1703373;83;21192;-77
2021/05/03 01:30:06;;;;;;;14.33;6.05;;;;;;;14.99;60.79;99065.87;1675299;84;21188;-78
2021/05/03 01:32:34;;;;;;;14.10;6.72;;;;;;;14.95;62.22;99064.83;1708555;82;21225;-73
2021/05/03 01:35:03;;;;;;;12.55;4.72;;;;;;;14.91;61.11;99065.20;1709582;82;21194;-75
2021/05/03 01:37:31;;;;;;;23.55;9.48;;;;;;;14.89;61.26;99069.38;1711552;82;21164;-81
2021/05/03 01:39:59;;;;;;;9.80;3.95;;;;;;;14.83;61.36;99059.02;1718538;83;21133;-75
2021/05/03 01:42:27;;;;;;;9.65;3.92;;;;;;;14.79;61.59;99059.38;1713734;83;21675;-77
2021/05/03 01:44:59;;;;;;;15.72;7.78;;;;;;;14.77;61.72;99071.27;1687761;83;21178;-78
2021/05/03 01:47:27;;;;;;;12.50;5.80;;;;;;;14.75;61.42;99065.81;1685197;85;21147;-75
2021/05/03 01:49:55;;;;;;;14.73;4.70;;;;;;;14.71;61.76;99066.14;1703238;83;21169;-75
2021/05/03 01:52:23;;;;;;;12.82;4.10;;;;;;;14.68;61.61;99074.45;1707903;84;21145;-77
2021/05/03 01:54:51;;;;;;;10.38;4.70;;;;;;;14.65;62.04;99081.15;1694969;83;21642;-78
2021/05/03 01:57:19;;;;;;;9.73;3.95;;;;;;;14.59;61.44;99072.16;1686008;85;21178;-76
2021/05/03 01:59:52;;;;;;;10.20;4.42;;;;;;;14.56;61.50;99072.20;1691098;83;21608;-77
2021/05/03 02:02:18;;;;;;;31.10;14.10;;;;;;;14.53;61.69;99078.86;1699484;84;21223;-77
2021/05/03 02:04:45;;;;;;;15.08;5.78;;;;;;;14.49;61.02;99078.67;1695080;83;21204;-74
2021/05/03 02:07:15;;;;;;;15.85;5.05;;;;;;;14.47;61.09;99074.00;1685163;85;21224;-75
2021/05/03 02:09:44;;;;;;;14.60;5.17;;;;;;;14.46;61.21;99085.33;1688549;83;21664;-74
2021/05/03 02:12:12;;;;;;;11.93;4.70;;;;;;;14.42;61.44;99078.80;1713425;84;21256;-74
2021/05/03 02:14:41;;;;;;;15.63;7.60;;;;;;;14.37;62.07;99076.93;1661405;83;21688;-78
2021/05/03 02:17:10;;;;;;;12.10;6.50;;;;;;;14.33;61.64;99075.91;1684926;84;21175;-77
2021/05/03 02:19:39;;;;;;;13.03;6.22;;;;;;;14.31;61.21;99074.58;1698707;83;21196;-77
2021/05/03 02:22:06;;;;;;;18.75;9.20;;;;;;;14.29;62.06;99073.48;1702873;83;21184;-76
2021/05/03 02:27:49;;;;;;;13.63;8.00;;;;;;;14.30;62.53;99071.53;1815192;77;28474;-76
2021/05/03 02:30:18;;;;;;;11.65;7.37;;;;;;;14.26;62.26;99077.39;1773543;80;21711;-75
2021/05/03 02:32:47;;;;;;;13.90;7.72;;;;;;;14.24;62.49;99074.95;1717268;81;21194;-76
2021/05/03 02:35:19;;;;;;;15.90;8.90;;;;;;;14.19;62.46;99073.66;1749867;81;21668;-76
2021/05/03 02:37:51;;;;;;;14.63;6.78;;;;;;;14.15;62.90;99071.23;1740371;80;21245;-80
2021/05/03 02:40:19;;;;;;;12.13;5.55;;;;;;;14.12;62.96;99060.82;1741362;82;21142;-77
2021/05/03 02:42:48;;;;;;;11.48;5.15;;;;;;;14.09;62.88;99062.00;1749584;80;21148;-76
2021/05/03 02:45:16;;;;;;;9.73;5.10;;;;;;;14.06;63.40;99066.17;1754654;82;21593;-74
2021/05/03 02:47:44;;;;;;;12.50;4.85;;;;;;;14.03;63.43;99072.27;1741475;80;21150;-73
2021/05/03 02:50:13;;;;;;;14.68;5.20;;;;;;;14.01;63.59;99078.63;1740804;82;21608;-74
2021/05/03 02:52:43;;;;;;;20.23;10.43;;;;;;;13.98;62.64;99075.92;1745079;80;21647;-76
2021/05/03 02:55:11;;;;;;;10.78;4.85;;;;;;;13.98;63.08;99074.55;1754438;81;21144;-76
2021/05/03 02:57:41;;;;;;;9.23;5.03;;;;;;;13.99;62.81;99078.09;1753435;80;21487;-74
2021/05/03 03:00:13;;;;;;;20.37;8.80;;;;;;;13.99;62.93;99083.59;1751699;81;21136;-74
2021/05/03 03:02:41;;;;;;;16.75;8.23;;;;;;;14.00;62.76;99079.73;1731212;80;21644;-75
2021/05/03 03:05:10;;;;;;;12.40;5.28;;;;;;;13.99;62.59;99080.84;1758084;81;21569;-73
2021/05/03 03:07:37;;;;;;;28.67;13.28;;;;;;;13.96;62.73;99079.50;1757232;80;21152;-74
2021/05/03 03:10:07;;;;;;;12.93;6.10;;;;;;;13.95;62.91;99076.52;1728016;80;21699;-73
2021/05/03 03:12:37;;;;;;;23.52;10.90;;;;;;;13.95;62.88;99075.69;1727767;81;21173;-74
2021/05/03 03:15:09;;;;;;;13.13;5.50;;;;;;;13.93;63.68;99071.05;1737307;80;21301;-73
2021/05/03 03:17:37;;;;;;;17.92;9.28;;;;;;;13.91;63.83;99063.66;1759121;81;21156;-75
2021/05/03 03:20:06;;;;;;;11.80;5.97;;;;;;;13.91;63.36;99066.41;1725348;81;21129;-73
2021/05/03 03:22:35;;;;;;;10.93;5.45;;;;;;;13.90;63.59;99066.14;1753656;80;21132;-74
2021/05/03 03:25:03;;;;;;;14.80;6.00;;;;;;;13.90;63.88;99060.09;1752240;80;21168;-77
2021/05/03 03:27:32;;;;;;;19.48;8.58;;;;;;;13.91;64.14;99059.53;1758565;80;21248;-74
2021/05/03 03:30:01;;;;;;;11.70;5.72;;;;;;;13.93;63.63;99062.25;1743853;80;21161;-83
2021/05/03 03:32:28;;;;;;;10.38;6.10;;;;;;;13.97;64.22;99056.39;1758221;80;21753;-75
2021/05/03 03:34:57;;;;;;;13.93;5.92;;;;;;;14.00;63.80;99050.84;1743639;80;21643;-82
2021/05/03 03:37:25;;;;;;;17.25;8.70;;;;;;;14.05;64.15;99053.52;1717372;83;21203;-81
2021/05/03 03:43:12;;;;;;;25.72;12.45;;;;;;;14.13;63.89;99052.84;1819062;77;22567;-75
2021/05/03 03:45:40;;;;;;;16.48;7.87;;;;;;;14.11;64.18;99053.70;1675731;83;21734;-74
2021/05/03 03:48:08;;;;;;;13.93;7.30;;;;;;;14.10;64.13;99053.43;1670976;86;21638;-74
2021/05/03 03:50:36;;;;;;;22.80;9.55;;;;;;;14.11;63.85;99046.83;1716871;82;21145;-74
2021/05/03 03:53:05;;;;;;;22.27;10.50;;;;;;;14.12;64.25;99042.94;1703123;84;21303;-81
2021/05/03 03:55:33;;;;;;;16.48;6.92;;;;;;;14.13;64.33;99048.70;1703884;82;21203;-79
2021/05/03 03:58:02;;;;;;;18.07;7.80;;;;;;;14.13;64.65;99050.09;1692420;84;21260;-79
2021/05/03 04:00:30;;;;;;;11.85;6.55;;;;;;;14.13;64.56;99045.95;1712547;83;21124;-80
2021/05/03 04:02:58;;;;;;;10.18;5.80;;;;;;;14.15;65.00;99045.64;1701226;83;21163;-79
2021/05/03 04:08:04;;;;;;;18.45;8.55;;;;;;;14.22;65.34;99045.52;1684691;83;21219;-74
2021/05/03 04:13:24;;;;;;;38.65;19.17;;;;;;;14.29;65.37;99058.91;1703847;83;21207;-74
2021/05/03 04:26:14;;;;;;;11.63;5.50;;;;;;;14.50;64.94;99073.95;1717642;83;21200;-77
2021/05/03 04:28:49;;;;;;;26.15;13.22;;;;;;;14.54;65.02;99085.46;1699788;83;21203;-77
2021/05/03 04:31:19;;;;;;;14.10;5.58;;;;;;;14.59;65.85;99077.11;1705733;84;21220;-80
2021/05/03 04:33:48;;;;;;;16.02;5.67;;;;;;;14.61;65.27;99075.41;1705537;83;21183;-76
2021/05/03 04:36:17;;;;;;;18.25;5.85;;;;;;;14.61;65.34;99067.98;1693079;83;21259;-80
2021/05/03 04:38:44;;;;;;;20.02;7.33;;;;;;;14.65;65.29;99067.38;1714270;82;21223;-78
2021/05/03 04:41:12;;;;;;;14.13;6.47;;;;;;;14.69;65.75;99064.27;1707946;83;21124;-75
2021/05/03 04:43:41;;;;;;;13.65;6.97;;;;;;;14.73;66.44;99072.16;1685490;83;21152;-75
2021/05/03 04:46:08;;;;;;;30.15;13.90;;;;;;;14.77;66.12;99071.27;1691617;83;21580;-74
2021/05/03 04:48:36;;;;;;;32.40;15.48;;;;;;;14.78;66.43;99068.75;1719289;82;21232;-75
2021/05/03 04:51:05;;;;;;;17.10;7.12;;;;;;;14.78;66.18;99062.42;1717318;83;21184;-76
2021/05/03 04:53:33;;;;;;;;;;;;;;;14.79;66.35;99059.94;1722430;82;21164;-76
2021/05/03 04:56:03;;;;;;;27.52;12.47;;;;;;;14.82;66.57;99063.46;1723026;82;20181;-75
2021/05/03 04:58:31;;;;;;;57.58;25.30;;;;;;;14.85;66.67;99058.73;1706136;84;21162;-75
2021/05/03 05:00:59;;;;;;;38.70;18.12;;;;;;;14.89;66.57;99059.73;1701248;82;21155;-75
2021/05/03 05:03:27;;;;;;;23.67;10.45;;;;;;;14.91;66.83;99063.00;1712295;84;21185;-76
2021/05/03 05:05:55;;;;;;;23.80;10.35;;;;;;;14.93;67.12;99063.50;1691785;83;21167;-76
2021/05/03 05:08:23;;;;;;;17.82;7.22;;;;;;;14.95;66.92;99065.41;1723700;83;21135;-77
2021/05/03 05:10:51;;;;;;;22.30;9.13;;;;;;;14.99;66.93;99066.42;1690242;83;21156;-79
2021/05/03 05:13:19;;;;;;;27.82;12.73;;;;;;;15.05;67.25;99059.11;1712777;83;21149;-79
2021/05/03 05:15:48;;;;;;;19.92;7.20;;;;;;;15.14;67.45;99053.16;1714291;82;21133;-76
2021/05/03 05:18:16;;;;;;;25.45;11.35;;;;;;;15.22;66.89;99060.70;1722984;83;21135;-76
2021/05/03 05:20:44;;;;;;;19.82;7.92;;;;;;;15.28;67.15;99060.83;1689646;83;21235;-75
2021/05/03 05:23:12;;;;;;;21.50;8.20;;;;;;;15.34;66.82;99068.44;1670138;84;21334;-75
2021/05/03 05:25:41;;;;;;;25.57;11.30;;;;;;;15.37;66.65;99076.10;1701989;83;21243;-77
2021/05/03 05:28:09;;;;;;;96.75;45.38;;;;;;;15.38;66.58;99065.31;1710597;83;21188;-78
2021/05/03 05:30:37;;;;;;;46.73;24.18;;;;;;;15.37;67.29;99052.66;1672765;83;21648;-76
2021/05/03 05:33:05;;;;;;;48.98;21.97;;;;;;;15.38;67.27;99054.28;1716747;82;21761;-77
2021/05/03 05:35:32;;;;;;;24.18;9.30;;;;;;;15.40;67.19;99052.05;1700675;83;21152;-75
2021/05/03 05:38:01;;;;;;;27.27;10.80;;;;;;;15.40;67.64;99065.84;1663090;85;21205;-75
2021/05/03 05:40:29;;;;;;;23.90;8.88;;;;;;;15.41;67.95;99060.56;1688205;85;21628;-75
2021/05/03 05:42:59;;;;;;;25.62;10.32;;;;;;;15.45;67.61;99063.00;1693141;83;21636;-79
2021/05/03 05:45:27;;;;;;;29.72;12.53;;;;;;;15.51;67.75;99057.61;1718042;82;21652;-79
2021/05/03 05:47:55;;;;;;;19.48;8.35;;;;;;;15.55;67.64;99061.40;1695212;83;21231;-79
2021/05/03 05:50:23;;;;;;;32.38;15.35;;;;;;;15.57;67.41;99061.90;1702323;84;21137;-74
2021/05/03 05:52:51;;;;;;;23.15;10.70;;;;;;;15.64;67.49;99062.84;1706365;83;21803;-80
2021/05/03 05:55:19;;;;;;;23.57;9.13;;;;;;;15.70;67.71;99060.23;1706906;84;21138;-81
2021/05/03 05:57:48;;;;;;;22.13;10.23;;;;;;;15.78;67.24;99054.80;1709073;83;21249;-78
2021/05/03 06:00:17;;;;;;;21.40;10.03;;;;;;;15.87;66.85;99046.02;1710817;83;21169;-77
2021/05/03 06:02:47;;;;;;;28.83;12.18;;;;;;;15.98;66.89;99049.91;1701913;83;21609;-79
2021/05/03 06:05:15;;;;;;;29.30;13.83;;;;;;;16.07;66.84;99043.88;1704755;84;21156;-82
2021/05/03 06:07:44;;;;;;;28.40;12.68;;;;;;;16.14;66.45;99038.17;1702471;83;21180;-80
2021/05/03 06:10:13;;;;;;;37.05;15.28;;;;;;;16.25;66.45;99038.73;1702334;83;21165;-79
2021/05/03 06:12:41;;;;;;;17.32;8.65;;;;;;;16.36;66.20;99027.69;1701490;84;21146;-80
2021/05/03 06:15:09;;;;;;;21.12;8.35;;;;;;;16.44;66.45;99026.93;1676664;83;21283;-80
2021/05/03 06:17:37;;;;;;;22.58;9.98;;;;;;;16.53;64.45;99030.57;1705264;83;21152;-77
2021/05/03 06:20:06;;;;;;;20.15;8.65;;;;;;;16.53;64.45;99030.57;1696064;83;21153;-77
2021/05/03 06:22:36;;;;;;;18.30;8.20;;;;;;;16.57;64.96;99048.72;1696732;84;21639;-75
2021/05/03 06:25:07;;;;;;;24.85;9.85;;;;;;;16.61;64.92;99051.09;1688669;83;21116;-75
2021/05/03 06:27:35;;;;;;;23.50;9.20;;;;;;;16.64;65.08;99040.23;1710432;84;21173;-78
2021/05/03 06:30:07;;;;;;;21.95;9.58;;;;;;;16.68;65.14;99050.88;1693013;83;21671;-75
2021/05/03 06:32:35;;;;;;;24.82;9.65;;;;;;;16.74;65.30;99045.48;1718063;83;21565;-74
2021/05/03 06:35:04;;;;;;;19.37;8.78;;;;;;;16.77;65.34;99050.38;1693226;83;21188;-78
2021/05/03 06:37:32;;;;;;;20.35;8.98;;;;;;;16.80;65.12;99048.33;1720505;83;21200;-81
2021/05/03 06:40:00;;;;;;;16.32;8.75;;;;;;;16.84;64.78;99055.43;1719236;82;21143;-75
2021/05/03 06:42:28;;;;;;;26.00;10.82;;;;;;;16.84;64.62;99060.95;1713481;83;21174;-81
2021/05/03 06:44:55;;;;;;;25.12;11.33;;;;;;;16.84;64.48;99060.95;1705524;82;21149;-80
2021/05/03 06:47:27;;;;;;;40.17;17.85;;;;;;;16.85;64.57;99060.62;1699812;84;21679;-79
2021/05/03 06:49:56;;;;;;;24.57;10.60;;;;;;;16.86;64.57;99063.66;1700513;83;21212;-81
2021/05/03 06:52:24;;;;;;;21.70;9.28;;;;;;;16.86;64.39;99058.69;1675650;82;21572;-79
2021/05/03 06:54:52;;;;;;;23.05;10.88;;;;;;;16.85;64.68;99055.09;1710481;82;21133;-76
2021/05/03 06:57:20;;;;;;;24.40;11.08;;;;;;;16.86;64.98;99052.59;1685963;83;21175;-76
2021/05/03 06:59:49;;;;;;;26.05;10.48;;;;;;;16.84;65.49;99054.87;1711095;83;21196;-84
2021/05/03 07:02:17;;;;;;;20.90;9.48;;;;;;;16.84;65.25;99052.66;1715164;83;21188;-76
2021/05/03 07:04:47;;;;;;;21.73;8.83;;;;;;;16.84;65.41;99045.20;1692644;82;21168;-74
2021/05/03 07:07:15;;;;;;;24.87;8.30;;;;;;;16.87;65.65;99047.33;1709160;83;21173;-77
2021/05/03 07:09:46;;;;;;;;;;;;;;;16.93;65.46;99047.42;1711357;82;21663;-77
2021/05/03 07:12:14;;;;;;;20.97;8.83;;;;;;;16.98;65.09;99044.50;1704095;83;20528;-84
2021/05/03 07:14:43;;;;;;;20.05;9.35;;;;;;;17.05;65.30;99049.00;1711443;82;21168;-74
2021/05/03 07:17:11;;;;;;;31.57;15.35;;;;;;;17.15;65.20;99045.94;1707876;83;21188;-86
2021/05/03 07:19:39;;;;;;;;;;;;;;;17.25;64.96;99035.73;1709198;83;21208;-76
2021/05/03 07:22:08;;;;;;;31.60;12.58;;;;;;;17.35;65.14;99032.66;1701659;83;20297;-79
2021/05/03 07:24:37;;;;;;;23.75;9.20;;;;;;;17.43;64.82;99032.66;1705937;82;21156;-80
2021/05/03 07:27:08;;;;;;;35.33;15.43;;;;;;;17.53;64.91;99029.62;1699781;83;21156;-79
2021/05/03 07:29:36;;;;;;;29.52;13.70;;;;;;;17.63;64.12;99021.59;1709396;83;21140;-79
2021/05/03 07:32:05;;;;;;;23.57;9.78;;;;;;;17.70;63.70;99012.23;1685332;84;21342;-78
2021/05/03 07:34:34;;;;;;;22.62;10.15;;;;;;;17.76;63.44;98999.84;1691127;82;21298;-75
2021/05/03 07:37:05;;;;;;;26.75;9.45;;;;;;;17.82;63.97;99005.47;1708820;83;21148;-81
2021/05/03 07:39:33;;;;;;;24.45;8.75;;;;;;;17.88;63.18;99013.86;1708101;82;21742;-76
2021/05/03 07:42:01;;;;;;;25.90;10.55;;;;;;;17.90;62.68;99018.49;1700829;83;21283;-78
2021/05/03 07:44:31;;;;;;;32.38;15.45;;;;;;;17.93;63.13;99021.18;1700668;82;21189;-76
2021/05/03 07:46:59;;;;;;;27.48;11.88;;;;;;;17.99;63.56;99028.98;1707564;83;21528;-76
2021/05/03 07:49:27;;;;;;;21.65;9.98;;;;;;;18.02;62.70;99024.74;1708151;82;21547;-78
2021/05/03 07:51:55;;;;;;;;;;;;;;;18.01;62.92;99017.00;1658790;85;21666;-79
2021/05/03 07:54:23;;;;;;;25.40;9.73;;;;;;;18.02;62.95;99022.80;1695984;82;20826;-77
2021/05/03 07:56:51;;;;;;;23.62;9.08;;;;;;;18.01;63.20;99019.77;1702289;83;21657;-81
2021/05/03 07:59:19;;;;;;;22.60;8.65;;;;;;;18.03;63.38;99020.28;1696940;83;21188;-78
2021/05/03 08:01:47;;;;;;;20.23;9.08;;;;;;;18.02;63.00;99030.28;1698896;84;21188;-75
2021/05/03 08:04:15;;;;;;;21.55;8.50;;;;;;;17.99;63.76;99033.70;1701795;82;21207;-81
2021/05/03 08:06:45;;;;;;;18.30;9.18;;;;;;;17.92;63.30;99027.84;1702147;83;21268;-78
2021/05/03 08:09:13;;;;;;;21.48;9.90;;;;;;;17.84;64.27;99036.95;1703396;82;21197;-78
2021/05/03 08:11:44;;;;;;;25.52;11.33;;;;;;;17.77;65.40;99040.23;1687506;83;21260;-81
2021/05/03 08:14:15;;;;;;;22.90;10.38;;;;;;;17.72;65.65;99043.16;1695291;82;21205;-77
2021/05/03 08:16:42;;;;;;;21.57;9.00;;;;;;;17.66;66.02;99050.80;1692137;83;21172;-81
2021/05/03 08:19:12;;;;;;;25.97;9.03;;;;;;;17.61;66.29;99055.66;1697619;84;21177;-82
2021/05/03 08:21:42;;;;;;;22.00;9.38;;;;;;;17.56;66.71;99044.75;1691713;83;21268;-77
2021/05/03 08:24:10;;;;;;;24.00;10.48;;;;;;;17.49;67.28;99037.48;1696721;83;21149;-77
2021/05/03 08:26:38;;;;;;;20.75;10.30;;;;;;;17.43;69.06;99037.41;1694856;83;21133;-78
2021/05/03 08:29:06;;;;;;;24.98;11.70;;;;;;;17.35;69.64;99045.94;1703612;84;21691;-77
2021/05/03 08:31:34;;;;;;;25.97;13.90;;;;;;;17.28;70.54;99036.48;1697293;83;21676;-79
2021/05/03 08:34:03;;;;;;;27.70;13.30;;;;;;;17.25;72.13;99031.59;1691706;84;21522;-78
2021/05/03 08:36:34;;;;;;;24.98;11.28;;;;;;;17.19;72.78;99030.91;1695943;83;21566;-79
2021/05/03 08:39:04;;;;;;;28.42;11.85;;;;;;;17.19;73.33;99039.77;1700579;83;21596;-79
2021/05/03 08:41:35;;;;;;;27.60;12.23;;;;;;;17.17;73.58;99035.14;1689034;83;21283;-78
2021/05/03 08:44:04;;;;;;;29.45;12.98;;;;;;;17.17;73.42;99031.81;1690840;83;21611;-78
2021/05/03 08:46:39;;;;;;;25.43;12.43;;;;;;;17.18;74.47;99036.78;1693269;83;21743;-79
2021/05/03 08:49:08;;;;;;;29.02;12.88;;;;;;;17.09;74.38;99034.80;1696151;84;21157;-78
2021/05/03 08:51:49;;;;;;;25.95;13.25;;;;;;;17.13;74.85;99026.09;1700695;83;21157;-76
2021/05/03 08:56:50;;;;;;;25.72;14.10;;;;;;;17.17;75.42;99040.11;1701325;83;21133;-78
2021/05/03 08:59:19;;;;;;;25.57;14.00;;;;;;;17.17;75.50;99040.67;1694280;83;21169;-78
2021/05/03 09:01:48;;;;;;;25.48;14.53;;;;;;;17.16;75.22;99041.23;1695244;84;21157;-78
2021/05/03 09:04:17;;;;;;;28.42;13.08;;;;;;;17.17;75.72;99035.95;1690062;83;21150;-78
2021/05/03 09:07:14;;;;;;;23.30;12.33;;;;;;;17.21;76.03;99041.64;1700360;84;21660;-78
2021/05/03 09:09:49;;;;;;;24.15;10.25;;;;;;;17.26;76.44;99037.34;1700032;82;21144;-77
2021/05/03 09:12:19;;;;;;;23.30;10.70;;;;;;;17.37;76.42;99035.92;1696926;83;21624;-78
2021/05/03 09:15:02;;;;;;;24.32;10.93;;;;;;;17.51;76.40;99031.05;1717224;82;21140;-79
2021/05/03 09:17:37;;;;;;;18.55;10.25;;;;;;;17.63;76.46;99022.98;1646601;85;21143;-79
2021/05/03 09:20:16;;;;;;;25.35;9.85;;;;;;;17.78;76.11;99023.28;1689976;82;21200;-77
2021/05/03 09:22:53;;;;;;;22.42;10.32;;;;;;;17.88;75.71;99030.47;1714069;83;21164;-83
2021/05/03 09:25:34;;;;;;;20.02;9.53;;;;;;;17.93;75.09;99033.08;1708535;83;21623;-81
2021/05/03 09:28:19;;;;;;;22.15;10.13;;;;;;;17.93;74.71;99024.77;1708709;83;22032;-82
2021/05/03 09:30:57;;;;;;;19.92;10.48;;;;;;;17.89;74.34;99036.23;1705096;82;21156;-82
2021/05/03 09:33:28;;;;;;;21.50;9.90;;;;;;;17.84;75.09;99039.73;1704859;83;21240;-81
2021/05/03 09:36:13;;;;;;;24.25;10.23;;;;;;;17.78;75.13;99044.63;1683566;83;21173;-80
2021/05/03 09:38:48;;;;;;;21.80;10.72;;;;;;;17.70;75.42;99042.67;1710358;82;21719;-81
2021/05/03 09:41:28;;;;;;;24.37;10.93;;;;;;;17.63;75.16;99038.98;1703543;82;21707;-81
2021/05/03 09:44:07;;;;;;;22.50;10.20;;;;;;;17.54;75.35;99042.88;1707073;82;21187;-76
2021/05/03 09:46:39;;;;;;;23.22;11.30;;;;;;;17.45;75.56;99038.71;1706940;82;21157;-81
2021/05/03 09:49:11;;;;;;;24.63;12.63;;;;;;;17.39;75.71;99043.31;1697976;83;21153;-82
2021/05/03 09:51:49;;;;;;;24.25;11.45;;;;;;;17.31;75.49;99046.31;1686046;83;21147;-79
2021/05/03 09:54:29;;;;;;;23.18;12.05;;;;;;;17.22;75.93;99046.05;1706195;82;21389;-78
2021/05/03 09:57:05;;;;;;;27.27;13.10;;;;;;;17.15;76.48;99049.30;1684959;83;21156;-80
2021/05/03 09:59:39;;;;;;;22.90;13.05;;;;;;;17.08;76.62;99055.84;1696102;83;21677;-82
2021/05/03 10:02:23;;;;;;;23.75;12.63;;;;;;;17.02;76.83;99055.75;1685209;83;21191;-82
2021/05/03 10:05:05;;;;;;;27.52;13.95;;;;;;;16.97;77.42;99051.19;1678162;83;21684;-81
2021/05/03 10:07:33;;;;;;;25.50;12.78;;;;;;;16.91;77.80;99046.11;1691799;83;21152;-81
2021/05/03 10:10:14;;;;;;;24.32;13.32;;;;;;;16.83;78.14;99046.31;1705799;82;21188;-83
2021/05/03 10:12:44;;;;;;;27.55;14.95;;;;;;;16.73;78.25;99043.83;1708856;82;21184;-83
2021/05/03 10:15:14;;;;;;;23.60;14.90;;;;;;;16.58;79.19;99024.91;1707778;83;21165;-82
2021/05/03 10:17:44;;;;;;;26.37;15.45;;;;;;;16.50;79.79;99033.93;1681022;84;21357;-77
2021/05/03 10:20:16;;;;;;;26.12;15.45;;;;;;;16.44;80.40;99026.93;1704167;82;21211;-80
2021/05/03 10:22:46;;;;;;;30.00;16.00;;;;;;;16.37;81.01;99022.39;1697862;83;21153;-80
2021/05/03 10:25:17;;;;;;;25.62;16.73;;;;;;;16.35;82.03;99037.09;1679938;84;21169;-80
2021/05/03 10:27:46;;;;;;;31.17;17.98;;;;;;;16.36;82.52;99030.45;1700885;83;21291;-82
2021/05/03 10:30:23;;;;;;;29.50;17.85;;;;;;;16.34;82.92;99034.10;1696555;83;21723;-85
2021/05/03 10:33:04;;;;;;;32.83;19.00;;;;;;;16.32;82.96;99030.81;1702575;83;21180;-79
2021/05/03 10:35:36;;;;;;;36.05;19.25;;;;;;;16.30;83.04;99026.18;1696434;83;21129;-81
2021/05/03 10:38:07;;;;;;;36.38;20.48;;;;;;;16.28;83.47;99033.97;1695766;83;21160;-79
2021/05/03 10:40:43;;;;;;;33.40;20.12;;;;;;;16.28;83.82;99035.35;1701016;83;21469;-79
2021/05/03 10:43:14;;;;;;;31.82;19.92;;;;;;;16.30;83.86;99043.56;1690661;83;21609;-79
2021/05/03 10:49:11;;;;;;;29.40;20.02;;;;;;;16.23;83.54;99045.97;1714933;82;21179;-79
2021/05/03 10:57:11;;;;;;;31.75;20.15;;;;;;;16.08;83.18;99046.91;1675960;83;21215;-79
2021/05/03 10:59:51;;;;;;;30.85;20.10;;;;;;;16.08;83.63;99045.52;1693859;82;21542;-78
2021/05/03 11:02:21;;;;;;;28.20;20.00;;;;;;;16.06;83.63;99053.31;1694027;84;21664;-78
2021/05/03 11:05:26;;;;;;;31.85;21.05;;;;;;;16.04;83.98;99050.05;1676833;82;22316;-78
2021/05/03 11:08:11;;;;;;;31.55;21.40;;;;;;;16.06;84.27;99039.52;1702881;82;21757;-78
2021/05/03 11:11:03;;;;;;;33.70;21.35;;;;;;;16.07;84.49;99030.91;1703179;82;21324;-74
2021/05/03 11:13:41;;;;;;;34.67;21.75;;;;;;;16.09;84.24;99024.50;1700388;83;21192;-76
2021/05/03 11:16:31;;;;;;;36.50;21.70;;;;;;;16.11;84.24;99025.58;1700814;82;21184;-74
2021/05/03 11:19:36;;;;;;;33.42;20.85;;;;;;;16.11;84.45;99015.36;1672869;84;21157;-74
2021/05/03 11:22:01;;;;;;;34.50;23.07;;;;;;;16.11;84.61;99015.36;1707339;82;21628;-75
2021/05/03 11:24:35;;;;;;;34.27;23.92;;;;;;;16.10;84.32;99015.09;1692921;82;21219;-76
2021/05/03 11:27:08;;;;;;;38.45;24.65;;;;;;;16.08;84.11;99004.95;1717100;82;21698;-78
2021/05/03 11:30:21;;;;;;;39.53;25.90;;;;;;;16.06;84.16;98996.73;1690364;83;21266;-74
2021/05/03 11:32:03;;;;;;;40.03;25.17;;;;;;;16.02;84.11;98991.56;1676556;83;21579;-75
2021/05/03 11:34:39;;;;;;;36.70;24.23;;;;;;;15.99;84.25;98989.46;1690370;83;21153;-71
2021/05/03 11:37:10;;;;;;;40.10;25.48;;;;;;;15.98;84.31;98974.84;1695921;83;21150;-73
2021/05/03 11:40:50;;;;;;;36.83;24.10;;;;;;;15.98;84.27;98960.22;1695543;83;21623;-72
2021/05/03 11:42:34;;;;;;;39.83;25.30;;;;;;;15.95;84.97;98981.54;1661618;83;21204;-75
2021/05/03 11:44:56;;;;;;;42.13;26.57;;;;;;;15.96;85.53;98991.46;1694340;84;21146;-72
2021/05/03 11:47:31;;;;;;;37.98;25.82;;;;;;;15.95;85.99;99007.76;1693625;83;21282;-75
2021/05/03 11:49:59;;;;;;;35.80;25.00;;;;;;;15.92;86.50;99018.86;1693339;83;21176;-77
2021/05/03 11:52:30;;;;;;;;;;;;;;;15.87;86.73;99022.56;1686355;83;21169;-74
2021/05/03 11:55:08;;;;;;;35.23;24.57;;;;;;;15.84;86.82;99016.28;1701656;82;20246;-75
2021/05/03 11:57:44;;;;;;;38.58;24.12;;;;;;;15.81;86.80;99019.66;1700764;83;21671;-76
2021/05/03 12:00:18;;;;;;;38.48;25.45;;;;;;;15.77;86.90;99020.61;1702713;84;21180;-76
2021/05/03 12:02:48;;;;;;;41.18;26.30;;;;;;;15.72;87.13;99025.69;1671704;83;21629;-75
2021/05/03 12:05:19;;;;;;;37.23;25.12;;;;;;;15.68;87.17;99026.08;1712037;82;21472;-78
2021/05/03 12:07:49;;;;;;;39.85;26.23;;;;;;;15.63;87.39;99010.20;1692038;82;21152;-78
2021/05/03 12:10:20;;;;;;;37.33;27.20;;;;;;;15.65;87.82;98999.11;1696280;82;21184;-78
2021/05/03 12:12:53;;;;;;;40.95;26.10;;;;;;;15.66;88.17;98978.65;1697817;82;21227;-75
2021/05/03 12:15:27;;;;;;;43.25;27.20;;;;;;;15.72;88.56;98969.14;1699094;82;21199;-79